createdAt,value
2023-03-06T05:00:50.360Z,97.40
2023-03-06T05:01:50.289Z,97.61
2023-03-06T05:02:50.210Z,97.92
2023-03-06T05:03:50.158Z,98.13
2023-03-06T05:04:50.167Z,98.23
2023-03-06T05:05:50.140Z,98.23
2023-03-06T05:06:50.136Z,98.34
2023-03-06T05:07:50.167Z,98.34
2023-03-06T05:08:50.107Z,98.44
2023-03-06T05:09:50.091Z,98.55
2023-03-06T05:10:50.097Z,98.75
2023-03-06T05:11:50.060Z,98.86
2023-03-06T05:12:50.086Z,98.96
2023-03-06T05:13:50.092Z,98.86
2023-03-06T05:14:57.556Z,98.60
2023-03-06T05:15:52.768Z,98.39
2023-03-06T05:16:50.107Z,98.08
2023-03-06T05:17:49.988Z,97.67
2023-03-06T05:18:50.727Z,97.35
2023-03-06T05:19:50.221Z,97.14
2023-03-06T05:20:49.970Z,97.04
2023-03-06T05:21:49.947Z,96.83
2023-03-06T05:22:50.026Z,96.62
2023-03-06T05:23:49.923Z,96.62
2023-03-06T05:24:49.923Z,96.52
2023-03-06T05:25:50.026Z,96.42
2023-03-06T05:26:49.902Z,96.42
2023-03-06T05:27:49.879Z,96.31
2023-03-06T05:28:49.970Z,96.42
2023-03-06T05:29:49.898Z,96.31
2023-03-06T05:30:49.864Z,96.21
2023-03-06T05:31:49.951Z,96.31
2023-03-06T05:32:49.879Z,96.31
2023-03-06T05:33:49.950Z,96.31
2023-03-06T05:34:49.796Z,96.21
2023-03-06T05:35:49.902Z,96.31
2023-03-06T05:36:49.836Z,96.21
2023-03-06T05:37:49.748Z,96.21
2023-03-06T05:38:49.751Z,96.00
2023-03-06T05:39:49.722Z,96.00
2023-03-06T05:40:49.749Z,96.11
2023-03-06T05:41:49.712Z,96.11
2023-03-06T05:42:49.735Z,96.11
2023-03-06T05:43:49.700Z,96.00
2023-03-06T05:44:49.684Z,96.00
2023-03-06T05:45:49.659Z,95.89
2023-03-06T05:46:49.653Z,95.68
2023-03-06T05:47:49.793Z,95.48
2023-03-06T05:48:49.663Z,95.48
2023-03-06T05:49:49.694Z,95.48
2023-03-06T05:50:49.626Z,95.48
2023-03-06T05:51:49.574Z,95.48
2023-03-06T05:52:49.578Z,95.37
2023-03-06T05:53:49.663Z,95.27
2023-03-06T05:54:49.552Z,95.27
2023-03-06T05:55:49.546Z,95.27
2023-03-06T05:56:49.542Z,95.06
2023-03-06T05:57:49.540Z,95.06
2023-03-06T05:58:49.572Z,94.96
2023-03-06T05:59:49.513Z,94.96
2023-03-06T06:00:49.479Z,94.96
2023-03-06T06:01:49.445Z,95.06
2023-03-06T06:02:49.545Z,95.06
2023-03-06T06:03:49.445Z,94.96
2023-03-06T06:04:49.450Z,94.85
2023-03-06T06:05:49.399Z,94.54
2023-03-06T06:06:49.403Z,94.43
2023-03-06T06:07:49.368Z,94.18
2023-03-06T06:08:49.476Z,93.98
2023-03-06T06:09:49.376Z,93.87
2023-03-06T06:10:51.550Z,93.56
2023-03-06T06:11:49.344Z,93.35
2023-03-06T06:12:49.332Z,93.35
2023-03-06T06:13:49.317Z,93.14
2023-03-06T06:14:49.394Z,93.14
2023-03-06T06:15:49.379Z,93.04
2023-03-06T06:16:49.290Z,93.04
2023-03-06T06:17:49.246Z,92.93
2023-03-06T06:18:49.260Z,92.72
2023-03-06T06:19:49.223Z,92.62
2023-03-06T06:20:49.324Z,92.52
2023-03-06T06:21:49.205Z,92.31
2023-03-06T06:22:49.197Z,92.21
2023-03-06T06:23:49.157Z,92.21
2023-03-06T06:24:49.173Z,92.00
2023-03-06T06:25:49.208Z,91.78
2023-03-06T06:26:49.138Z,91.64
2023-03-06T06:27:49.114Z,91.64
2023-03-06T06:28:49.116Z,91.64
2023-03-06T06:29:49.100Z,91.85
2023-03-06T06:30:49.129Z,91.75
2023-03-06T06:31:49.089Z,91.64
2023-03-06T06:32:49.073Z,91.64
2023-03-06T06:33:49.035Z,91.53
2023-03-06T06:34:49.050Z,91.43
2023-03-06T06:35:49.089Z,91.33
2023-03-06T06:36:50.550Z,91.33
2023-03-06T06:37:49.005Z,91.22
2023-03-06T06:38:49.022Z,90.91
2023-03-06T06:39:48.967Z,90.91
2023-03-06T06:41:18.089Z,90.91
2023-03-06T06:42:02.374Z,90.81
2023-03-06T06:42:50.017Z,90.91
2023-03-06T06:43:48.908Z,91.02
2023-03-06T06:44:48.931Z,90.91
2023-03-06T06:45:49.669Z,90.91
2023-03-06T06:47:49.928Z,91.22
2023-03-06T06:48:48.905Z,91.02
2023-03-06T06:49:48.852Z,91.02
2023-03-06T06:50:48.899Z,91.02
2023-03-06T06:51:48.801Z,91.02
2023-03-06T06:52:48.893Z,90.91
2023-03-06T06:53:48.781Z,90.91
2023-03-06T06:54:48.798Z,91.12
2023-03-06T06:55:48.785Z,91.12
2023-03-06T06:56:48.851Z,91.12
2023-03-06T06:57:48.749Z,91.02
2023-03-06T06:58:48.732Z,91.02
2023-03-06T06:59:48.738Z,91.28
2023-03-06T07:00:48.713Z,91.50
2023-03-06T07:01:48.770Z,91.50
2023-03-06T07:02:48.788Z,91.50
2023-03-06T07:03:48.678Z,91.50
2023-03-06T07:05:02.452Z,91.60
2023-03-06T07:05:49.647Z,91.50
2023-03-06T07:06:48.629Z,91.60
2023-03-06T07:07:48.596Z,91.81
2023-03-06T07:08:48.673Z,91.64
2023-03-06T07:09:48.568Z,91.53
2023-03-06T07:10:48.586Z,91.60
2023-03-06T07:11:48.548Z,91.75
2023-03-06T07:12:48.574Z,91.75
2023-03-06T07:13:48.554Z,91.60
2023-03-06T07:14:48.527Z,91.50
2023-03-06T07:15:48.509Z,91.28
2023-03-06T07:16:48.539Z,91.39
2023-03-06T07:17:50.172Z,91.18
2023-03-06T07:18:48.504Z,91.18
2023-03-06T07:19:48.459Z,90.87
2023-03-06T07:20:48.636Z,90.56
2023-03-06T07:21:48.451Z,90.45
2023-03-06T07:22:51.650Z,90.25
2023-03-06T07:23:48.392Z,90.00
2023-03-06T07:24:48.414Z,89.79
2023-03-06T07:25:48.363Z,89.58
2023-03-06T07:26:48.441Z,89.48
2023-03-06T07:27:53.241Z,89.48
2023-03-06T07:28:52.764Z,89.37
2023-03-06T07:29:48.310Z,89.48
2023-03-06T07:30:48.308Z,89.58
2023-03-06T07:31:48.295Z,89.69
2023-03-06T07:32:48.351Z,89.54
2023-03-06T07:33:48.328Z,89.43
2023-03-06T07:34:48.262Z,89.43
2023-03-06T07:35:48.325Z,89.43
2023-03-06T07:36:48.230Z,89.33
2023-03-06T07:37:48.266Z,89.23
2023-03-06T07:38:48.271Z,89.12
2023-03-06T07:39:48.215Z,88.81
2023-03-06T07:40:48.213Z,88.71
2023-03-06T07:41:48.176Z,88.09
2023-03-06T07:42:48.182Z,87.77
2023-03-06T07:43:48.139Z,87.73
2023-03-06T07:44:48.183Z,87.52
2023-03-06T07:45:48.107Z,87.21
2023-03-06T07:46:48.167Z,86.90
2023-03-06T07:47:48.101Z,86.80
2023-03-06T07:48:48.121Z,86.49
2023-03-06T07:49:48.094Z,86.07
2023-03-06T07:50:48.150Z,86.27
2023-03-06T07:51:48.035Z,86.27
2023-03-06T07:52:48.048Z,86.17
2023-03-06T07:53:48.063Z,85.86
2023-03-06T07:54:48.016Z,86.07
2023-03-06T07:55:47.989Z,86.38
2023-03-06T07:56:48.058Z,86.17
2023-03-06T07:57:47.970Z,86.38
2023-03-06T07:58:48.006Z,85.96
2023-03-06T07:59:47.924Z,85.86
2023-03-06T08:00:48.022Z,85.86
2023-03-06T08:01:47.898Z,85.86
2023-03-06T08:02:47.945Z,85.55
2023-03-06T08:03:47.905Z,85.55
2023-03-06T08:04:47.878Z,85.75
2023-03-06T08:05:47.895Z,85.65
2023-03-06T08:06:47.944Z,85.65
2023-03-06T08:07:47.814Z,85.72
2023-03-06T08:08:47.820Z,85.51
2023-03-06T08:09:47.813Z,85.41
2023-03-06T08:10:47.843Z,85.20
2023-03-06T08:11:47.781Z,84.78
2023-03-06T08:12:47.835Z,84.78
2023-03-06T08:13:47.749Z,84.78
2023-03-06T08:14:47.786Z,84.89
2023-03-06T08:15:47.738Z,84.58
2023-03-06T08:16:47.762Z,84.58
2023-03-06T08:17:47.700Z,84.27
2023-03-06T08:18:47.777Z,83.95
2023-03-06T08:19:47.680Z,83.70
2023-03-06T08:20:47.690Z,83.50
2023-03-06T08:21:47.641Z,83.18
2023-03-06T08:22:47.632Z,82.87
2023-03-06T08:23:47.613Z,82.73
2023-03-06T08:24:47.685Z,82.42
2023-03-06T08:25:47.600Z,82.42
2023-03-06T08:26:47.606Z,81.80
2023-03-06T08:27:47.571Z,81.49
2023-03-06T08:28:47.571Z,80.97
2023-03-06T08:29:47.582Z,80.93
2023-03-06T08:30:47.573Z,80.93
2023-03-06T08:31:47.621Z,80.73
2023-03-06T08:32:47.539Z,80.52
2023-03-06T08:33:47.498Z,79.90
2023-03-06T08:34:47.549Z,79.69
2023-03-06T08:35:47.520Z,79.24
2023-03-06T08:36:47.483Z,78.92
2023-03-06T08:37:47.446Z,78.51
2023-03-06T08:38:47.429Z,78.16
2023-03-06T08:39:47.434Z,78.37
2023-03-06T08:40:47.529Z,77.92
2023-03-06T08:41:47.388Z,77.40
2023-03-06T08:42:47.381Z,76.64
2023-03-06T08:43:47.376Z,76.12
2023-03-06T08:44:47.456Z,75.88
2023-03-06T08:45:47.386Z,75.67
2023-03-06T08:46:47.389Z,74.77
2023-03-06T08:47:47.335Z,75.15
2023-03-06T08:48:47.310Z,75.26
2023-03-06T08:49:47.285Z,75.05
2023-03-06T08:50:47.364Z,74.40
2023-03-06T08:51:47.258Z,74.71
2023-03-06T08:52:47.313Z,74.40
2023-03-06T08:53:47.232Z,73.98
2023-03-06T08:54:47.277Z,73.88
2023-03-06T08:55:47.206Z,73.43
2023-03-06T08:56:47.243Z,73.33
2023-03-06T08:57:47.189Z,73.12
2023-03-06T08:58:47.243Z,72.71
2023-03-06T08:59:47.159Z,72.50
2023-03-06T09:00:47.229Z,71.88
2023-03-06T09:01:47.128Z,72.08
2023-03-06T09:02:47.128Z,71.98
2023-03-06T09:03:47.116Z,72.36
2023-03-06T09:04:47.179Z,72.16
2023-03-06T09:05:47.070Z,71.92
2023-03-06T09:06:47.070Z,70.88
2023-03-06T09:07:47.044Z,71.19
2023-03-06T09:08:47.042Z,70.75
2023-03-06T09:09:47.045Z,70.43
2023-03-06T09:10:47.089Z,70.23
2023-03-06T09:11:47.034Z,70.03
2023-03-06T09:12:51.237Z,69.71
2023-03-06T09:13:47.991Z,68.99
2023-03-06T09:14:46.951Z,68.99
2023-03-06T09:15:47.002Z,68.68
2023-03-06T09:16:46.995Z,68.65
2023-03-06T09:17:46.952Z,68.62
2023-03-06T09:18:46.909Z,67.97
2023-03-06T09:19:46.910Z,67.66
2023-03-06T09:20:46.918Z,67.45
2023-03-06T09:21:46.900Z,67.11
2023-03-06T09:22:46.860Z,67.11
2023-03-06T09:23:46.886Z,66.67
2023-03-06T09:24:46.833Z,66.36
2023-03-06T09:25:46.878Z,65.81
2023-03-06T09:26:48.329Z,65.50
2023-03-06T09:27:46.820Z,64.99
2023-03-06T09:28:46.769Z,64.75
2023-03-06T09:29:46.779Z,64.41
2023-03-06T09:30:46.774Z,64.00
2023-03-06T09:31:46.828Z,63.39
2023-03-06T09:32:46.728Z,63.49
2023-03-06T09:33:46.729Z,62.46
2023-03-06T09:34:46.704Z,62.49
2023-03-06T09:35:46.758Z,63.10
2023-03-06T09:36:56.534Z,63.31
2023-03-06T09:37:47.744Z,63.21
2023-03-06T09:38:46.663Z,63.10
2023-03-06T09:39:46.683Z,63.03
2023-03-06T09:40:46.670Z,63.47
2023-03-06T09:41:46.618Z,64.12
2023-03-06T09:42:46.616Z,64.56
2023-03-06T09:43:46.621Z,65.05
2023-03-06T09:44:46.590Z,64.64
2023-03-06T09:45:46.687Z,64.95
2023-03-06T09:46:46.552Z,65.25
2023-03-06T09:47:46.568Z,64.98
2023-03-06T09:48:46.518Z,65.08
2023-03-06T09:49:46.531Z,65.18
2023-03-06T09:50:46.503Z,65.18
2023-03-06T09:51:46.563Z,65.52
2023-03-06T09:52:46.468Z,65.42
2023-03-06T09:53:46.471Z,65.52
2023-03-06T09:54:46.441Z,66.07
2023-03-06T09:55:46.453Z,66.17
2023-03-06T09:56:46.441Z,66.48
2023-03-06T09:57:46.483Z,66.38
2023-03-06T09:58:46.384Z,66.00
2023-03-06T09:59:46.410Z,66.10
2023-03-06T10:00:46.369Z,66.51
2023-03-06T10:01:46.378Z,67.03
2023-03-06T10:02:46.515Z,67.65
2023-03-06T10:03:46.437Z,67.65
2023-03-06T10:04:46.353Z,67.13
2023-03-06T10:05:46.326Z,66.72
2023-03-06T10:06:46.288Z,65.79
2023-03-06T10:07:46.352Z,66.20
2023-03-06T10:08:46.273Z,66.30
2023-03-06T10:09:46.340Z,66.03
2023-03-06T10:10:46.235Z,66.33
2023-03-06T10:11:46.266Z,66.33
2023-03-06T10:12:46.205Z,66.51
2023-03-06T10:13:46.233Z,66.51
2023-03-06T10:14:48.920Z,66.41
2023-03-06T10:15:46.281Z,66.20
2023-03-06T10:16:46.157Z,65.89
2023-03-06T10:17:46.167Z,65.55
2023-03-06T10:18:46.143Z,64.93
2023-03-06T10:19:46.155Z,64.83
2023-03-06T10:20:46.098Z,65.45
2023-03-06T10:21:46.173Z,66.30
2023-03-06T10:22:52.601Z,67.03
2023-03-06T10:23:47.092Z,67.13
2023-03-06T10:24:46.071Z,67.88
2023-03-06T10:25:46.069Z,68.54
2023-03-06T10:26:46.144Z,69.26
2023-03-06T10:27:46.044Z,69.57
2023-03-06T10:28:46.021Z,70.12
2023-03-06T10:30:01.280Z,70.40
2023-03-06T10:30:47.012Z,70.43
2023-03-06T10:31:45.988Z,70.53
2023-03-06T10:32:49.171Z,70.64
2023-03-06T10:33:45.959Z,71.05
2023-03-06T10:34:45.936Z,71.67
2023-03-06T10:35:45.959Z,72.02
2023-03-06T10:36:45.886Z,72.22
2023-03-06T10:37:45.917Z,72.85
2023-03-06T10:38:45.978Z,73.25
2023-03-06T10:39:45.889Z,73.46
2023-03-06T10:40:45.848Z,74.12
2023-03-06T10:41:46.265Z,74.95
2023-03-06T10:42:45.819Z,75.81
2023-03-06T10:43:45.827Z,76.84
2023-03-06T10:44:45.864Z,77.26
2023-03-06T10:45:49.334Z,77.05
2023-03-06T10:46:45.819Z,77.57
2023-03-06T10:47:45.768Z,77.67
2023-03-06T10:48:45.834Z,78.09
2023-03-06T10:49:45.733Z,77.78
2023-03-06T10:50:45.759Z,77.74
2023-03-06T10:51:45.722Z,77.64
2023-03-06T10:52:45.705Z,77.43
2023-03-06T10:53:45.692Z,77.43
2023-03-06T10:54:45.662Z,77.22
2023-03-06T10:55:45.715Z,77.12
2023-03-06T10:56:45.656Z,77.33
2023-03-06T10:57:45.661Z,77.74
2023-03-06T10:58:45.619Z,78.26
2023-03-06T10:59:45.599Z,78.47
2023-03-06T11:00:45.589Z,78.64
2023-03-06T11:01:45.662Z,78.88
2023-03-06T11:02:45.561Z,79.71
2023-03-06T11:03:45.556Z,79.60
2023-03-06T11:04:45.543Z,80.43
2023-03-06T11:05:45.599Z,80.85
2023-03-06T11:06:45.497Z,81.16
2023-03-06T11:07:45.516Z,81.40
2023-03-06T11:08:45.489Z,81.51
2023-03-06T11:09:45.485Z,81.99
2023-03-06T11:10:45.457Z,82.09
2023-03-06T11:11:45.502Z,82.23
2023-03-06T11:12:45.437Z,82.86
2023-03-06T11:13:45.430Z,82.65
2023-03-06T11:14:58.001Z,82.23
2023-03-06T11:15:45.635Z,81.09
2023-03-06T11:16:45.928Z,81.05
2023-03-06T11:17:45.973Z,80.85
2023-03-06T11:18:45.558Z,81.37
2023-03-06T11:19:45.711Z,81.78
2023-03-06T11:20:51.985Z,81.43
2023-03-06T11:21:46.411Z,80.19
2023-03-06T11:22:45.978Z,79.63
2023-03-06T11:23:45.326Z,78.77
2023-03-06T11:24:45.300Z,77.22
2023-03-06T11:25:45.284Z,76.29
2023-03-06T11:26:45.248Z,77.29
2023-03-06T11:27:45.287Z,78.11
2023-03-06T11:28:45.320Z,78.32
2023-03-06T11:29:45.230Z,78.28
2023-03-06T11:30:45.215Z,78.59
2023-03-06T11:31:45.254Z,78.56
2023-03-06T11:32:45.236Z,77.73
2023-03-06T11:33:45.186Z,76.81
2023-03-06T11:34:45.148Z,76.56
2023-03-06T11:35:45.241Z,76.35
2023-03-06T11:36:45.121Z,76.39
2023-03-06T11:37:45.236Z,76.35
2023-03-06T11:38:45.084Z,76.35
2023-03-06T11:39:45.217Z,76.46
2023-03-06T11:40:45.076Z,75.95
2023-03-06T11:41:45.062Z,76.15
2023-03-06T11:42:45.023Z,76.53
2023-03-06T11:43:45.062Z,76.12
2023-03-06T11:44:45.013Z,76.87
2023-03-06T11:45:45.025Z,77.49
2023-03-06T11:46:45.044Z,77.59
2023-03-06T11:47:44.974Z,77.59
2023-03-06T11:48:45.054Z,78.01
2023-03-06T11:49:44.967Z,77.39
2023-03-06T11:50:44.949Z,77.28
2023-03-06T11:51:44.949Z,77.76
2023-03-06T11:52:44.913Z,75.95
2023-03-06T11:53:44.932Z,74.46
2023-03-06T11:54:44.978Z,73.85
2023-03-06T11:55:44.977Z,72.92
2023-03-06T11:56:44.850Z,72.61
2023-03-06T11:57:44.850Z,71.55
2023-03-06T11:58:44.868Z,70.51
2023-03-06T11:59:44.848Z,69.96
2023-03-06T12:00:44.880Z,69.55
2023-03-06T12:01:44.863Z,68.80
2023-03-06T12:02:44.786Z,68.90
2023-03-06T12:03:44.827Z,68.49
2023-03-06T12:04:44.840Z,67.84
2023-03-06T12:05:44.987Z,67.84
2023-03-06T12:06:44.757Z,67.25
2023-03-06T12:07:44.809Z,68.35
2023-03-06T12:08:51.720Z,68.46
2023-03-06T12:09:44.705Z,68.29
2023-03-06T12:10:49.035Z,69.38
2023-03-06T12:11:45.713Z,68.15
2023-03-06T12:12:44.698Z,66.78
2023-03-06T12:13:44.677Z,65.03
2023-03-06T12:14:44.618Z,64.39
2023-03-06T12:15:44.715Z,64.48
2023-03-06T12:16:44.629Z,63.25
2023-03-06T12:17:44.776Z,63.84
2023-03-06T12:18:44.569Z,61.37
2023-03-06T12:19:44.577Z,61.19
2023-03-06T12:20:44.575Z,60.65
2023-03-06T12:21:44.568Z,59.83
2023-03-06T12:22:53.389Z,58.87
2023-03-06T12:23:45.564Z,58.47
2023-03-06T12:24:44.488Z,57.95
2023-03-06T12:25:44.573Z,58.34
2023-03-06T12:26:44.519Z,57.72
2023-03-06T12:27:44.520Z,57.72
2023-03-06T12:28:46.301Z,58.03
2023-03-06T12:29:44.459Z,57.59
2023-03-06T12:30:44.432Z,57.31
2023-03-06T12:31:44.762Z,57.10
2023-03-06T12:32:44.422Z,56.59
2023-03-06T12:33:44.387Z,57.23
2023-03-06T12:34:44.358Z,58.36
2023-03-06T12:35:44.410Z,59.08
2023-03-06T12:36:44.349Z,58.36
2023-03-06T12:37:44.412Z,58.23
2023-03-06T12:38:44.329Z,57.95
2023-03-06T12:39:44.318Z,57.13
2023-03-06T12:40:44.309Z,57.67
2023-03-06T12:41:44.314Z,58.39
2023-03-06T12:42:44.253Z,59.01
2023-03-06T12:43:44.313Z,58.39
2023-03-06T12:44:44.232Z,58.57
2023-03-06T12:45:44.310Z,58.47
2023-03-06T12:46:44.208Z,57.75
2023-03-06T12:47:44.310Z,57.95
2023-03-06T12:48:44.177Z,56.72
2023-03-06T12:49:44.271Z,57.03
2023-03-06T12:50:44.359Z,56.34
2023-03-06T12:51:44.153Z,57.06
2023-03-06T12:52:44.151Z,56.93
2023-03-06T12:53:44.130Z,56.72
2023-03-06T12:54:51.250Z,56.62
2023-03-06T12:55:51.117Z,56.44
2023-03-06T12:56:51.087Z,56.13
2023-03-06T12:57:51.110Z,56.74
2023-03-06T12:58:51.074Z,56.41
2023-03-06T12:59:44.143Z,56.10
2023-03-06T13:00:44.808Z,57.03
2023-03-06T13:01:44.102Z,55.59
2023-03-06T13:02:44.017Z,55.28
2023-03-06T13:03:43.994Z,55.62
2023-03-06T13:04:44.037Z,56.02
2023-03-06T13:05:43.979Z,56.26
2023-03-06T13:06:50.145Z,56.59
2023-03-06T13:07:44.940Z,57.24
2023-03-06T13:08:44.349Z,57.54
2023-03-06T13:09:43.918Z,57.37
2023-03-06T13:10:43.950Z,57.88
2023-03-06T13:11:43.885Z,57.78
2023-03-06T13:12:43.902Z,57.57
2023-03-06T13:13:43.969Z,57.98
2023-03-06T13:14:53.873Z,57.98
2023-03-06T13:15:44.897Z,57.78
2023-03-06T13:16:43.860Z,57.68
2023-03-06T13:17:43.809Z,57.78
2023-03-06T13:18:43.818Z,57.68
2023-03-06T13:19:43.775Z,58.09
2023-03-06T13:20:43.789Z,57.88
2023-03-06T13:21:43.827Z,58.16
2023-03-06T13:22:43.787Z,57.86
2023-03-06T13:23:43.724Z,57.86
2023-03-06T13:24:43.732Z,57.73
2023-03-06T13:25:43.770Z,57.62
2023-03-06T13:26:43.725Z,57.82
2023-03-06T13:27:43.735Z,57.50
2023-03-06T13:28:43.679Z,56.70
2023-03-06T13:29:43.649Z,57.24
2023-03-06T13:30:43.713Z,57.44
2023-03-06T13:31:43.706Z,57.03
2023-03-06T13:32:43.631Z,57.03
2023-03-06T13:33:43.663Z,57.34
2023-03-06T13:34:43.614Z,57.21
2023-03-06T13:35:43.671Z,56.90
2023-03-06T13:36:43.577Z,55.98
2023-03-06T13:37:43.545Z,55.26
2023-03-06T13:38:43.633Z,55.66
2023-03-06T13:39:43.532Z,55.66
2023-03-06T13:40:43.528Z,55.77
2023-03-06T13:41:43.566Z,56.82
2023-03-06T13:42:43.509Z,57.14
2023-03-06T13:43:45.357Z,57.24
2023-03-06T13:44:43.496Z,57.37
2023-03-06T13:45:43.445Z,56.95
2023-03-06T13:46:43.449Z,56.75
2023-03-06T13:48:10.625Z,57.18
2023-03-06T13:48:45.845Z,57.18
2023-03-06T13:49:43.415Z,57.62
2023-03-06T13:50:43.429Z,57.73
2023-03-06T13:51:43.376Z,57.73
2023-03-06T13:52:43.401Z,58.06
2023-03-06T13:53:43.425Z,58.50
2023-03-06T13:54:43.370Z,58.71
2023-03-06T13:55:43.333Z,59.02
2023-03-06T13:56:43.330Z,59.23
2023-03-06T13:57:43.290Z,59.44
2023-03-06T13:58:43.301Z,59.53
2023-03-06T13:59:43.323Z,59.95
2023-03-06T14:00:43.393Z,59.84
2023-03-06T14:01:43.361Z,60.05
2023-03-06T14:02:43.273Z,60.47
2023-03-06T14:03:43.208Z,61.01
2023-03-06T14:04:43.210Z,61.22
2023-03-06T14:05:43.182Z,61.11
2023-03-06T14:06:43.257Z,61.42
2023-03-06T14:07:43.155Z,61.63
2023-03-06T14:08:43.148Z,61.63
2023-03-06T14:09:43.136Z,61.97
2023-03-06T14:10:43.149Z,62.17
2023-03-06T14:11:43.097Z,62.59
2023-03-06T14:12:43.164Z,62.79
2023-03-06T14:13:47.374Z,63.10
2023-03-06T14:14:43.098Z,63.10
2023-03-06T14:15:43.067Z,63.72
2023-03-06T14:16:49.879Z,63.51
2023-03-06T14:17:44.093Z,63.93
2023-03-06T14:18:43.042Z,63.90
2023-03-06T14:19:42.995Z,63.28
2023-03-06T14:20:43.004Z,62.76
2023-03-06T14:21:42.985Z,62.97
2023-03-06T14:22:42.999Z,63.07
2023-03-06T14:23:43.013Z,63.07
2023-03-06T14:24:42.952Z,62.94
2023-03-06T14:25:42.924Z,62.74
2023-03-06T14:26:42.936Z,62.08
2023-03-06T14:27:42.906Z,61.88
2023-03-06T14:28:42.904Z,61.78
2023-03-06T14:29:42.905Z,61.05
2023-03-06T14:30:42.876Z,60.54
2023-03-06T14:31:42.840Z,59.72
2023-03-06T14:32:42.880Z,58.58
2023-03-06T14:33:42.819Z,58.48
2023-03-06T14:34:42.812Z,58.48
2023-03-06T14:35:42.864Z,58.37
2023-03-06T14:36:42.800Z,58.37
2023-03-06T14:37:42.781Z,57.55
2023-03-06T14:38:42.779Z,58.06
2023-03-06T14:39:42.744Z,58.37
2023-03-06T14:40:42.827Z,58.37
2023-03-06T14:41:49.767Z,58.45
2023-03-06T14:42:42.768Z,57.83
2023-03-06T14:43:42.723Z,57.62
2023-03-06T14:44:43.013Z,57.62
2023-03-06T14:45:50.746Z,57.52
2023-03-06T14:46:42.811Z,58.01
2023-03-06T14:48:03.728Z,57.91
2023-03-06T14:48:42.649Z,57.62
2023-03-06T14:49:42.644Z,58.37
2023-03-06T14:50:42.593Z,58.58
2023-03-06T14:51:42.765Z,58.79
2023-03-06T14:52:42.580Z,58.69
2023-03-06T14:53:42.599Z,58.37
2023-03-06T14:54:42.577Z,58.58
2023-03-06T14:55:42.575Z,58.37
2023-03-06T14:56:42.599Z,58.48
2023-03-06T14:57:42.576Z,58.27
2023-03-06T14:58:42.528Z,58.06
2023-03-06T14:59:42.502Z,58.06
2023-03-06T15:00:42.672Z,58.27
2023-03-06T15:01:42.524Z,58.37
2023-03-06T15:02:42.481Z,58.06
2023-03-06T15:03:42.492Z,58.06
2023-03-06T15:04:42.450Z,57.96
2023-03-06T15:05:42.422Z,58.06
2023-03-06T15:06:42.549Z,58.06
2023-03-06T15:07:42.401Z,58.27
2023-03-06T15:08:42.416Z,58.09
2023-03-06T15:09:42.415Z,58.40
2023-03-06T15:10:42.422Z,58.30
2023-03-06T15:11:42.378Z,58.40
2023-03-06T15:12:42.328Z,58.50
2023-03-06T15:13:42.365Z,58.71
2023-03-06T15:14:42.338Z,58.30
2023-03-06T15:15:42.295Z,58.20
2023-03-06T15:16:42.357Z,58.30
2023-03-06T15:17:42.364Z,58.50
2023-03-06T15:18:42.273Z,58.20
2023-03-06T15:19:42.251Z,58.30
2023-03-06T15:20:42.264Z,58.81
2023-03-06T15:21:42.346Z,58.71
2023-03-06T15:22:42.256Z,58.92
2023-03-06T15:23:42.402Z,59.02
2023-03-06T15:24:42.243Z,59.23
2023-03-06T15:25:42.199Z,59.44
2023-03-06T15:26:42.182Z,58.92
2023-03-06T15:27:42.136Z,59.02
2023-03-06T15:28:42.127Z,59.23
2023-03-06T15:29:42.151Z,59.56
2023-03-06T15:30:42.116Z,59.46
2023-03-06T15:31:42.240Z,59.67
2023-03-06T15:32:42.154Z,59.77
2023-03-06T15:33:42.087Z,59.77
2023-03-06T15:34:42.071Z,60.08
2023-03-06T15:35:49.070Z,60.21
2023-03-06T15:36:42.038Z,60.93
2023-03-06T15:37:41.998Z,61.35
2023-03-06T15:38:42.665Z,61.04
2023-03-06T15:39:41.988Z,61.14
2023-03-06T15:40:41.984Z,61.45
2023-03-06T15:41:42.002Z,61.27
2023-03-06T15:42:41.917Z,61.38
2023-03-06T15:43:41.918Z,61.58
2023-03-06T15:44:41.931Z,61.79
2023-03-06T15:45:41.944Z,61.69
2023-03-06T15:46:41.866Z,61.79
2023-03-06T15:47:41.922Z,61.79
2023-03-06T15:48:41.840Z,61.61
2023-03-06T15:49:41.840Z,61.92
2023-03-06T15:50:41.844Z,61.92
2023-03-06T15:51:41.820Z,61.92
2023-03-06T15:52:41.858Z,62.02
2023-03-06T15:53:41.789Z,62.23
2023-03-06T15:54:41.788Z,62.34
2023-03-06T15:55:41.787Z,62.44
2023-03-06T15:56:41.743Z,62.44
2023-03-06T15:57:41.814Z,62.44
2023-03-06T15:58:41.743Z,62.75
2023-03-06T15:59:41.717Z,63.06
2023-03-06T16:00:41.706Z,63.16
2023-03-06T16:01:41.694Z,63.26
2023-03-06T16:02:42.077Z,63.29
2023-03-06T16:03:41.672Z,63.60
2023-03-06T16:04:41.637Z,63.50
2023-03-06T16:05:41.666Z,63.60
2023-03-06T16:06:41.627Z,63.71
2023-03-06T16:07:41.645Z,64.02
2023-03-06T16:08:41.607Z,64.02
2023-03-06T16:09:41.603Z,64.25
2023-03-06T16:10:41.626Z,64.46
2023-03-06T16:11:43.934Z,64.67
2023-03-06T16:12:41.532Z,64.87
2023-03-06T16:13:41.537Z,64.87
2023-03-06T16:14:41.502Z,65.08
2023-03-06T16:15:41.531Z,65.19
2023-03-06T16:16:41.602Z,65.29
2023-03-06T16:17:41.484Z,65.39
2023-03-06T16:18:41.459Z,65.70
2023-03-06T16:19:41.451Z,65.81
2023-03-06T16:20:41.451Z,65.81
2023-03-06T16:21:41.468Z,66.02
2023-03-06T16:22:41.464Z,66.22
2023-03-06T16:23:41.418Z,66.22
2023-03-06T16:24:41.447Z,66.32
2023-03-06T16:25:41.388Z,66.42
2023-03-06T16:26:41.352Z,66.32
2023-03-06T16:27:41.415Z,66.53
2023-03-06T16:28:41.318Z,66.63
2023-03-06T16:29:41.373Z,66.46
2023-03-06T16:30:41.357Z,66.77
2023-03-06T16:31:41.309Z,67.18
2023-03-06T16:32:41.363Z,67.18
2023-03-06T16:33:41.272Z,67.29
2023-03-06T16:34:41.254Z,67.18
2023-03-06T16:35:41.343Z,67.29
2023-03-06T16:36:41.223Z,67.49
2023-03-06T16:37:41.398Z,67.60
2023-03-06T16:38:41.190Z,67.80
2023-03-06T16:39:41.199Z,68.01
2023-03-06T16:40:48.200Z,67.83
2023-03-06T16:41:49.205Z,68.04
2023-03-06T16:42:48.206Z,68.15
2023-03-06T16:43:48.161Z,68.04
2023-03-06T16:44:48.121Z,68.25
2023-03-06T16:45:48.190Z,68.25
2023-03-06T16:46:41.177Z,68.56
2023-03-06T16:47:41.104Z,68.66
2023-03-06T16:48:41.103Z,68.66
2023-03-06T16:49:41.116Z,68.66
2023-03-06T16:50:41.031Z,68.87
2023-03-06T16:51:41.062Z,69.08
2023-03-06T16:52:41.009Z,68.98
2023-03-06T16:53:41.019Z,69.18
2023-03-06T16:54:42.394Z,69.39
2023-03-06T16:55:40.991Z,69.49
2023-03-06T16:56:40.961Z,69.53
2023-03-06T16:57:40.963Z,69.63
2023-03-06T16:58:40.955Z,69.63
2023-03-06T16:59:40.941Z,69.63
2023-03-06T17:00:40.989Z,69.73
2023-03-06T17:01:40.971Z,69.84
2023-03-06T17:02:40.924Z,69.94
2023-03-06T17:03:40.879Z,70.15
2023-03-06T17:04:40.864Z,70.36
2023-03-06T17:05:42.626Z,70.36
2023-03-06T17:06:40.880Z,70.56
2023-03-06T17:07:40.870Z,70.67
2023-03-06T17:08:40.798Z,70.56
2023-03-06T17:09:40.809Z,70.56
2023-03-06T17:10:40.797Z,70.56
2023-03-06T17:11:40.771Z,70.67
2023-03-06T17:12:40.817Z,70.76
2023-03-06T17:13:40.780Z,70.87
2023-03-06T17:14:40.827Z,71.08
2023-03-06T17:15:40.823Z,71.08
2023-03-06T17:16:40.772Z,71.18
2023-03-06T17:17:40.699Z,71.32
2023-03-06T17:18:40.745Z,71.42
2023-03-06T17:19:40.675Z,71.63
2023-03-06T17:20:40.709Z,71.73
2023-03-06T17:21:40.642Z,71.73
2023-03-06T17:22:40.672Z,71.73
2023-03-06T17:23:40.820Z,71.84
2023-03-06T17:24:40.625Z,71.94
2023-03-06T17:25:40.594Z,72.05
2023-03-06T17:26:40.599Z,72.15
2023-03-06T17:27:40.562Z,72.15
2023-03-06T17:28:41.038Z,72.25
2023-03-06T17:29:40.545Z,72.36
2023-03-06T17:30:40.572Z,72.36
2023-03-06T17:31:40.526Z,72.67
2023-03-06T17:32:40.609Z,72.56
2023-03-06T17:33:40.490Z,72.56
2023-03-06T17:34:40.550Z,72.67
2023-03-06T17:35:40.491Z,72.88
2023-03-06T17:36:40.459Z,72.88
2023-03-06T17:37:40.497Z,73.08
2023-03-06T17:38:40.439Z,73.18
2023-03-06T17:39:40.418Z,73.18
2023-03-06T17:40:40.608Z,73.28
2023-03-06T17:41:40.382Z,73.39
2023-03-06T17:42:40.398Z,73.49
2023-03-06T17:43:40.357Z,73.43
2023-03-06T17:44:40.385Z,73.43
2023-03-06T17:45:40.327Z,73.43
2023-03-06T17:46:40.440Z,73.32
2023-03-06T17:47:40.327Z,73.53
2023-03-06T17:48:40.295Z,73.63
2023-03-06T17:49:40.278Z,73.74
2023-03-06T17:50:40.296Z,73.94
2023-03-06T17:51:40.248Z,74.05
2023-03-06T17:52:40.313Z,74.05
2023-03-06T17:53:40.229Z,74.15